Terminal Aerodrome Forecast
Issued by NWS

Home | Current Version | Previous Version | Text Only | Print | Product List | Glossary On
Versions: 1 2 3 4 5 6 7 8 9 10 11 12
000
FTAK31 PAJN 251744
TAFAPG
TAF
PAPG 251744Z 2518/2618 06004KT P6SM VCSH SCT020 OVC035
      TEMPO 2518/2522 VRB03KT -SHRA SCT015 OVC025
     FM252200 06005KT 6SM -SHRA BR BKN020 OVC030
     FM260800 00000KT P6SM FEW015 BKN050
      AMD LTD TO CLD VIS AND WIND 2606/2615=

USA.gov is the U.S. government's official web portal to all federal, state and local government web resources and services.